Time;durP1;ratioP1;P1;durP2;ratioP2;P2;SDS_P1;SDS_P2;PMS_P1;PMS_P2;Temp;Humidity;BMP_temperature;BMP_pressure;BME280_temperature;BME280_humidity;BME280_pressure;Samples;Min_cycle;Max_cycle;Signal;HPM_P1;HPM_P2
2022/06/05 00:02:50;;;;;;;4.28;3.15;;;22.90;47.30;21.90;101556.00;;;;5043565;28;20048;-71
2022/06/05 00:06:10;;;;;;;6.30;3.40;;;23.00;47.50;21.90;101550.00;;;;5042256;28;20038;-72
2022/06/05 00:09:24;;;;;;;7.78;5.88;;;22.90;47.50;21.90;101539.00;;;;5047811;28;20037;-71
2022/06/05 00:12:14;;;;;;;4.10;2.95;;;23.00;47.50;21.90;101547.00;;;;5055876;28;20052;-71
2022/06/05 00:15:01;;;;;;;5.70;4.20;;;22.90;47.50;21.90;101534.00;;;;5041744;28;20171;-72
2022/06/05 00:17:47;;;;;;;5.82;4.13;;;22.90;47.50;21.90;101533.00;;;;5050993;28;20040;-72
2022/06/05 00:20:33;;;;;;;4.88;4.35;;;22.90;47.50;21.90;101532.00;;;;5053638;28;20049;-71
2022/06/05 00:23:19;;;;;;;5.95;4.43;;;22.90;47.40;21.90;101521.00;;;;5057750;28;20536;-72
2022/06/05 00:26:24;;;;;;;6.28;4.80;;;22.90;47.50;21.90;101527.00;;;;5039087;28;20310;-71
2022/06/05 00:29:25;;;;;;;6.35;4.75;;;22.90;47.60;21.90;101521.00;;;;5055050;28;20045;-72
2022/06/05 00:32:35;;;;;;;5.85;4.25;;;22.90;47.40;21.90;101526.00;;;;5046196;28;20045;-72
2022/06/05 00:35:21;;;;;;;5.68;4.25;;;22.90;47.30;21.90;101532.00;;;;5035824;28;20077;-71
2022/06/05 00:38:19;;;;;;;4.90;4.30;;;23.00;47.50;21.90;101535.00;;;;5049790;28;20418;-72
2022/06/05 00:41:56;;;;;;;4.63;4.10;;;22.90;47.60;21.90;101546.00;;;;5035216;28;20576;-72
2022/06/05 00:44:47;;;;;;;5.68;4.40;;;22.90;47.60;21.90;101538.00;;;;5006558;28;20041;-72
2022/06/05 00:47:34;;;;;;;6.63;5.28;;;22.90;47.50;21.90;101549.00;;;;5052974;28;20043;-72
2022/06/05 00:50:27;;;;;;;5.13;4.57;;;22.90;47.40;21.90;101549.00;;;;5046575;28;20086;-72
2022/06/05 00:53:13;;;;;;;6.72;4.28;;;22.90;47.40;21.90;101543.00;;;;5037417;28;20319;-72
2022/06/05 00:55:59;;;;;;;5.50;4.53;;;22.80;47.40;21.90;101539.00;;;;5050727;28;20119;-71
2022/06/05 00:58:45;;;;;;;5.88;4.57;;;22.90;47.50;21.90;101543.00;;;;5050949;28;20132;-72
2022/06/05 01:01:32;;;;;;;4.90;4.43;;;22.90;47.60;21.90;101535.00;;;;5043652;28;20429;-72
2022/06/05 01:04:18;;;;;;;5.55;4.72;;;22.90;47.50;21.90;101533.00;;;;5041858;28;20119;-71
2022/06/05 01:07:04;;;;;;;4.95;3.95;;;22.90;47.50;21.90;101536.00;;;;5049187;28;20045;-71
2022/06/05 01:09:50;;;;;;;5.22;4.70;;;22.90;47.50;21.90;101526.00;;;;5047870;28;20045;-72
2022/06/05 01:13:12;;;;;;;7.22;5.40;;;22.90;47.50;21.80;101516.00;;;;5041183;28;20470;-71
2022/06/05 01:16:23;;;;;;;5.30;4.78;;;22.90;47.60;21.80;101512.00;;;;5036898;28;20076;-71
2022/06/05 01:19:33;;;;;;;5.80;4.40;;;22.90;47.60;21.80;101503.00;;;;5038749;28;20045;-72
2022/06/05 01:22:30;;;;;;;5.38;4.57;;;22.90;47.60;21.80;101497.00;;;;5034517;28;20186;-71
2022/06/05 01:25:56;;;;;;;6.75;4.88;;;22.80;47.50;21.80;101494.00;;;;5041306;28;20051;-72
2022/06/05 01:29:05;;;;;;;5.78;4.82;;;22.90;47.60;21.80;101492.00;;;;5049353;28;20072;-72
2022/06/05 01:31:55;;;;;;;7.03;4.72;;;22.90;47.50;21.80;101474.00;;;;5051932;28;20044;-72
2022/06/05 01:34:48;;;;;;;6.60;5.18;;;22.90;47.50;21.80;101485.00;;;;5042640;28;20053;-72
2022/06/05 01:37:43;;;;;;;5.25;4.40;;;22.90;47.60;21.80;101482.00;;;;5047287;28;20084;-72
2022/06/05 01:40:33;;;;;;;5.68;4.60;;;22.90;47.60;21.80;101480.00;;;;5055684;28;20051;-72
2022/06/05 01:43:23;;;;;;;6.85;4.68;;;22.90;47.60;21.80;101474.00;;;;5035061;28;20059;-72
2022/06/05 01:46:26;;;;;;;6.15;4.45;;;22.90;47.50;21.80;101478.00;;;;5062318;28;20032;-72
2022/06/05 01:49:26;;;;;;;4.75;4.25;;;22.90;47.40;21.80;101480.00;;;;5061150;28;20041;-71
2022/06/05 01:52:27;;;;;;;5.95;4.05;;;22.90;47.50;21.80;101475.00;;;;5060541;28;20052;-72
2022/06/05 01:55:53;;;;;;;4.57;4.18;;;22.90;47.50;21.80;101465.00;;;;5031803;28;20356;-72
2022/06/05 01:59:04;;;;;;;5.40;4.53;;;22.80;47.30;21.80;101459.00;;;;5038793;28;20228;-71
2022/06/05 02:01:56;;;;;;;5.63;4.40;;;22.80;47.30;21.80;101458.00;;;;5056692;28;20041;-71
2022/06/05 02:04:48;;;;;;;5.72;4.57;;;22.90;47.50;21.80;101442.00;;;;5045879;28;20037;-72
2022/06/05 02:07:38;;;;;;;5.13;4.25;;;22.90;47.30;21.80;101443.00;;;;5069447;28;20036;-72
2022/06/05 02:10:35;;;;;;;7.22;3.88;;;22.80;47.30;21.80;101448.00;;;;5038780;28;20041;-72
2022/06/05 02:13:21;;;;;;;4.70;4.00;;;22.80;47.40;21.80;101444.00;;;;5011307;28;20527;-71
2022/06/05 02:16:08;;;;;;;8.05;3.83;;;22.90;47.50;21.80;101442.00;;;;5044968;28;20692;-72
2022/06/05 02:18:54;;;;;;;6.43;4.53;;;22.80;47.40;21.80;101449.00;;;;5048298;28;20048;-71
2022/06/05 02:21:40;;;;;;;6.75;4.47;;;22.80;47.50;21.80;101444.00;;;;5048008;28;20051;-72
2022/06/05 02:24:26;;;;;;;5.43;4.20;;;22.90;47.40;21.80;101438.00;;;;5051074;28;20033;-71
2022/06/05 02:27:12;;;;;;;5.97;4.20;;;22.90;47.60;21.80;101425.00;;;;5035715;28;20486;-72
2022/06/05 02:29:58;;;;;;;4.80;4.35;;;22.80;47.50;21.80;101408.00;;;;5050282;28;20049;-72
2022/06/05 02:33:07;;;;;;;5.30;4.47;;;22.90;47.50;21.80;101408.00;;;;5055288;28;20858;-72
2022/06/05 02:36:18;;;;;;;5.47;4.57;;;22.90;47.50;21.80;101413.00;;;;5040772;28;20049;-72
2022/06/05 02:39:31;;;;;;;5.13;4.57;;;22.80;47.40;21.80;101408.00;;;;5029377;28;20249;-72
2022/06/05 02:42:43;;;;;;;5.43;4.68;;;22.80;47.40;21.80;101408.00;;;;5047834;28;20049;-72
2022/06/05 02:46:10;;;;;;;5.45;4.60;;;22.90;47.50;21.80;101397.00;;;;5044387;28;20069;-72
2022/06/05 02:49:17;;;;;;;5.93;4.72;;;22.80;47.40;21.80;101404.00;;;;5050893;28;20094;-72
2022/06/05 02:52:04;;;;;;;5.65;5.05;;;22.90;47.50;21.80;101404.00;;;;5023008;28;20091;-72
2022/06/05 02:54:57;;;;;;;5.95;5.22;;;22.80;47.40;21.80;101394.00;;;;5026445;28;20666;-72
2022/06/05 02:57:43;;;;;;;5.88;4.70;;;22.90;47.50;21.80;101394.00;;;;5057549;28;20464;-72
2022/06/05 03:00:31;;;;;;;5.47;4.68;;;22.80;47.50;21.80;101387.00;;;;5037544;28;20037;-72
2022/06/05 03:03:29;;;;;;;5.22;4.35;;;22.80;47.60;21.80;101378.00;;;;5053388;28;20152;-72
2022/06/05 03:06:15;;;;;;;6.75;4.55;;;22.80;47.50;21.80;101375.00;;;;5046307;28;20112;-72
2022/06/05 03:09:01;;;;;;;5.60;4.70;;;22.80;47.50;21.80;101368.00;;;;5049495;28;21756;-72
2022/06/05 03:11:47;;;;;;;5.70;4.38;;;22.90;47.60;21.80;101362.00;;;;5032428;28;20072;-72
2022/06/05 03:14:34;;;;;;;6.63;5.30;;;22.80;47.50;21.80;101355.00;;;;5057884;28;20409;-72
2022/06/05 03:17:20;;;;;;;6.18;4.80;;;22.80;47.50;21.80;101346.00;;;;5053194;28;20048;-71
2022/06/05 03:20:07;;;;;;;5.70;4.50;;;22.80;47.40;21.80;101344.00;;;;5061944;28;20069;-72
2022/06/05 03:22:53;;;;;;;6.57;4.78;;;22.80;47.40;21.80;101340.00;;;;5064782;28;20479;-72
2022/06/05 03:25:40;;;;;;;5.38;4.60;;;22.80;47.40;21.80;101340.00;;;;5061474;28;20395;-72
2022/06/05 03:28:26;;;;;;;5.38;4.53;;;22.80;47.30;21.80;101334.00;;;;5063617;28;20040;-72
2022/06/05 03:31:12;;;;;;;5.70;4.82;;;22.80;47.40;21.80;101339.00;;;;5062930;28;20527;-72
2022/06/05 03:33:58;;;;;;;4.55;4.15;;;22.80;47.40;21.80;101334.00;;;;5033947;28;20438;-71
2022/06/05 03:36:46;;;;;;;5.10;4.63;;;22.80;47.40;21.80;101330.00;;;;5041577;28;20045;-72
2022/06/05 03:39:32;;;;;;;5.80;4.13;;;22.80;47.40;21.80;101321.00;;;;5043454;28;20049;-72
2022/06/05 03:42:18;;;;;;;5.57;4.60;;;22.80;47.40;21.80;101309.00;;;;5052519;28;20048;-72
2022/06/05 03:45:05;;;;;;;7.00;4.82;;;22.80;47.40;21.80;101310.00;;;;5041704;28;20036;-72
2022/06/05 03:47:51;;;;;;;5.00;4.50;;;22.80;47.40;21.80;101306.00;;;;5036640;28;20086;-72
2022/06/05 03:50:38;;;;;;;6.40;5.13;;;22.90;47.40;21.80;101303.00;;;;5056594;28;20040;-72
2022/06/05 03:53:25;;;;;;;5.47;4.80;;;22.80;47.20;21.80;101303.00;;;;5066138;28;20059;-72
2022/06/05 03:56:13;;;;;;;4.82;4.40;;;22.80;47.20;21.80;101290.00;;;;5059093;28;20048;-72
2022/06/05 03:58:59;;;;;;;4.45;4.05;;;22.80;47.30;21.80;101292.00;;;;5046709;28;20045;-72
2022/06/05 04:01:45;;;;;;;5.45;4.28;;;22.80;47.30;21.80;101291.00;;;;5059832;28;20086;-72
2022/06/05 04:04:32;;;;;;;5.20;4.55;;;22.80;47.20;21.80;101290.00;;;;5067359;28;20079;-72
2022/06/05 04:07:19;;;;;;;5.30;3.72;;;22.80;47.20;21.80;101292.00;;;;5051055;28;20033;-72
2022/06/05 04:10:06;;;;;;;3.93;3.63;;;22.80;47.30;21.80;101290.00;;;;5035384;28;20135;-72
2022/06/05 04:12:52;;;;;;;4.33;3.93;;;22.80;47.30;21.80;101297.00;;;;5067084;28;20055;-72
2022/06/05 04:15:39;;;;;;;4.75;4.07;;;22.80;47.20;21.80;101304.00;;;;5052344;28;20119;-72
2022/06/05 04:18:25;;;;;;;6.68;4.50;;;22.80;47.20;21.80;101293.00;;;;5060921;28;20036;-72
2022/06/05 04:21:21;;;;;;;4.55;4.15;;;22.80;47.20;21.80;101296.00;;;;5058228;28;20049;-72
2022/06/05 04:24:07;;;;;;;3.97;3.58;;;22.80;47.10;21.80;101287.00;;;;5049268;28;20036;-71
2022/06/05 04:26:53;;;;;;;5.90;4.18;;;22.80;47.10;21.80;101289.00;;;;5049975;28;20029;-72
2022/06/05 04:29:40;;;;;;;4.35;3.95;;;22.80;47.30;21.80;101292.00;;;;5044781;28;20433;-72
2022/06/05 04:32:26;;;;;;;4.38;3.80;;;22.80;47.20;21.80;101287.00;;;;5058485;28;20510;-72
2022/06/05 04:35:12;;;;;;;4.00;3.60;;;22.90;47.30;21.80;101295.00;;;;5033229;28;20199;-72
2022/06/05 04:37:59;;;;;;;3.90;3.45;;;22.80;47.20;21.80;101300.00;;;;5042636;28;20041;-72
2022/06/05 04:40:45;;;;;;;4.38;3.80;;;22.80;47.20;21.80;101292.00;;;;5046658;28;20041;-72
2022/06/05 04:43:31;;;;;;;4.47;3.85;;;22.80;47.10;21.80;101286.00;;;;5046164;28;20041;-72
2022/06/05 04:46:18;;;;;;;4.22;3.83;;;22.90;47.30;21.80;101282.00;;;;5043654;28;20044;-72
2022/06/05 04:49:06;;;;;;;5.05;3.30;;;22.80;47.10;21.80;101278.00;;;;5041517;28;20028;-72
2022/06/05 04:51:52;;;;;;;4.30;3.90;;;22.80;47.00;21.80;101283.00;;;;5052426;28;20040;-72
2022/06/05 04:54:39;;;;;;;3.75;3.38;;;22.80;47.00;21.80;101285.00;;;;5041594;28;20059;-71
2022/06/05 04:57:25;;;;;;;3.50;3.20;;;22.80;47.10;21.80;101269.00;;;;5049315;28;20438;-72
2022/06/05 05:00:12;;;;;;;3.97;3.50;;;22.90;47.10;21.80;101285.00;;;;5044265;28;20049;-72
2022/06/05 05:02:58;;;;;;;3.90;3.25;;;22.80;47.00;21.80;101282.00;;;;5033732;28;20090;-72
2022/06/05 05:05:44;;;;;;;4.63;3.50;;;22.90;47.00;21.80;101293.00;;;;5045532;28;20051;-72
2022/06/05 05:08:30;;;;;;;4.60;3.15;;;22.80;47.00;21.80;101308.00;;;;5049966;28;20041;-72
2022/06/05 05:11:16;;;;;;;3.85;3.15;;;22.80;47.00;21.80;101300.00;;;;5041064;28;20045;-72
2022/06/05 05:14:02;;;;;;;3.63;3.20;;;22.80;47.00;21.80;101300.00;;;;5041725;28;20052;-71
2022/06/05 05:16:48;;;;;;;3.33;2.92;;;22.80;46.90;21.80;101300.00;;;;5048633;28;20045;-72
2022/06/05 05:19:34;;;;;;;3.97;2.95;;;22.80;46.90;21.80;101300.00;;;;5045018;28;20045;-72
2022/06/05 05:22:21;;;;;;;3.88;3.17;;;22.90;47.00;21.80;101309.00;;;;5044095;28;20049;-72
2022/06/05 05:25:09;;;;;;;4.70;3.33;;;22.80;47.00;21.80;101298.00;;;;5036304;28;20037;-72
2022/06/05 05:27:55;;;;;;;3.83;2.92;;;22.90;47.00;21.80;101298.00;;;;5059692;28;20033;-71
2022/06/05 05:30:44;;;;;;;3.40;3.10;;;22.80;47.00;21.80;101298.00;;;;5031068;28;20049;-72
2022/06/05 05:33:30;;;;;;;3.70;3.30;;;22.90;47.00;21.80;101296.00;;;;5051215;28;20110;-72
2022/06/05 05:36:18;;;;;;;3.72;3.35;;;22.80;46.90;21.80;101295.00;;;;5041927;28;20052;-72
2022/06/05 05:42:09;;;;;;;3.15;2.85;;;22.90;46.90;21.80;101297.00;;;;5054025;28;20045;-72
2022/06/05 05:44:55;;;;;;;3.28;2.97;;;22.80;46.90;21.80;101298.00;;;;5052167;28;20037;-72
2022/06/05 05:47:41;;;;;;;3.25;2.95;;;22.80;46.90;21.80;101300.00;;;;5044890;28;20052;-71
2022/06/05 05:50:27;;;;;;;3.75;3.20;;;22.80;46.90;21.80;101299.00;;;;5050914;28;20041;-72
2022/06/05 05:53:13;;;;;;;3.50;3.20;;;22.90;47.00;21.80;101304.00;;;;5038905;28;20095;-72
2022/06/05 05:56:09;;;;;;;3.13;2.90;;;22.80;47.00;21.80;101301.00;;;;5034179;28;20212;-72
2022/06/05 05:58:55;;;;;;;3.47;3.17;;;22.80;47.00;21.80;101292.00;;;;5041134;28;20079;-71
2022/06/05 06:01:41;;;;;;;3.67;2.97;;;22.90;47.00;21.80;101296.00;;;;5053279;28;20517;-72
2022/06/05 06:04:27;;;;;;;3.92;3.00;;;22.80;47.00;21.80;101303.00;;;;5041006;28;20088;-72
2022/06/05 06:07:14;;;;;;;3.15;2.72;;;22.80;47.00;21.80;101295.00;;;;5048698;28;20049;-71
2022/06/05 06:10:00;;;;;;;3.13;2.80;;;22.80;47.00;21.80;101294.00;;;;5051879;28;20645;-71
2022/06/05 06:12:46;;;;;;;3.88;2.83;;;22.80;47.00;21.80;101281.00;;;;5055998;28;20576;-72
2022/06/05 06:15:32;;;;;;;3.40;3.03;;;22.80;47.00;21.80;101272.00;;;;5041785;28;20118;-72
2022/06/05 06:18:18;;;;;;;4.35;2.80;;;22.80;47.00;21.80;101277.00;;;;5047487;28;20193;-72
2022/06/05 06:21:04;;;;;;;5.43;2.88;;;22.80;46.90;21.80;101284.00;;;;5037347;28;20049;-72
2022/06/05 06:23:50;;;;;;;3.42;2.83;;;22.80;47.00;21.80;101282.00;;;;5056327;28;20060;-72
2022/06/05 06:26:36;;;;;;;3.72;3.30;;;22.80;46.90;21.80;101262.00;;;;5049141;28;20083;-72
2022/06/05 06:29:22;;;;;;;3.03;2.70;;;22.80;47.00;21.80;101272.00;;;;5027196;28;20478;-72
2022/06/05 06:32:09;;;;;;;4.40;2.88;;;22.80;46.90;21.80;101263.00;;;;5032697;28;20140;-72
2022/06/05 06:34:56;;;;;;;3.10;2.67;;;22.90;47.00;21.80;101254.00;;;;5045096;28;20043;-72
2022/06/05 06:37:42;;;;;;;2.97;2.72;;;22.90;47.10;21.80;101268.00;;;;5048624;28;20048;-72
2022/06/05 06:40:28;;;;;;;2.95;2.65;;;22.90;47.10;21.80;101271.00;;;;5049268;28;20045;-72
2022/06/05 06:43:15;;;;;;;2.65;2.45;;;22.90;47.10;21.80;101259.00;;;;5044345;28;20041;-72
2022/06/05 06:46:01;;;;;;;3.65;2.90;;;22.80;47.00;21.80;101263.00;;;;5046305;28;20045;-72
2022/06/05 06:48:48;;;;;;;3.15;2.83;;;22.80;47.10;21.80;101266.00;;;;5054348;28;20487;-72
2022/06/05 06:51:34;;;;;;;3.53;2.58;;;22.80;47.10;21.80;101266.00;;;;5055945;28;20114;-72
2022/06/05 06:54:20;;;;;;;3.03;2.72;;;22.80;47.10;21.80;101272.00;;;;5041324;28;20048;-72
2022/06/05 06:57:07;;;;;;;3.15;2.53;;;22.80;47.00;21.80;101263.00;;;;5048876;28;20372;-72
2022/06/05 06:59:55;;;;;;;2.60;2.40;;;22.90;47.10;21.80;101259.00;;;;5048656;28;20048;-72
2022/06/05 07:02:41;;;;;;;3.20;2.90;;;22.90;47.00;21.80;101266.00;;;;5060959;28;20135;-71
2022/06/05 07:05:27;;;;;;;3.22;2.63;;;22.90;47.00;21.80;101263.00;;;;5058376;28;20514;-72
2022/06/05 07:08:13;;;;;;;2.28;2.17;;;22.90;47.10;21.80;101258.00;;;;5047805;28;20040;-72
2022/06/05 07:10:59;;;;;;;3.25;2.65;;;22.80;47.00;21.80;101262.00;;;;5057112;28;20482;-72
2022/06/05 07:13:45;;;;;;;2.42;2.20;;;22.80;47.10;21.80;101252.00;;;;5041258;28;20045;-72
2022/06/05 07:16:31;;;;;;;2.63;2.33;;;22.80;47.00;21.80;101238.00;;;;5053341;28;20041;-72
2022/06/05 07:19:17;;;;;;;4.72;2.65;;;22.80;47.00;21.80;101239.00;;;;5048751;28;20048;-72
2022/06/05 07:22:03;;;;;;;2.90;2.50;;;22.80;47.00;21.80;101242.00;;;;5016457;28;20044;-72
2022/06/05 07:24:50;;;;;;;3.08;2.33;;;22.80;47.00;21.80;101234.00;;;;5046508;28;20045;-72
2022/06/05 07:27:36;;;;;;;2.67;2.45;;;22.80;47.00;21.80;101223.00;;;;5044157;28;20643;-72
2022/06/05 07:30:22;;;;;;;2.97;2.55;;;22.80;47.10;21.80;101215.00;;;;5043789;28;20103;-72
2022/06/05 07:33:08;;;;;;;2.90;2.58;;;22.80;47.10;21.80;101208.00;;;;5048476;28;20042;-72
2022/06/05 07:35:58;;;;;;;3.80;2.38;;;22.80;47.10;21.80;101208.00;;;;5045074;28;20052;-71
2022/06/05 07:38:45;;;;;;;4.97;2.78;;;22.90;47.20;21.80;101201.00;;;;5054733;28;20147;-73
2022/06/05 07:41:36;;;;;;;2.67;2.28;;;22.90;47.20;21.80;101210.00;;;;5053752;28;20415;-73
2022/06/05 07:44:22;;;;;;;3.05;2.40;;;22.90;47.20;21.80;101194.00;;;;5050911;28;20132;-72
2022/06/05 07:47:08;;;;;;;4.00;2.40;;;22.80;47.20;21.80;101187.00;;;;5046148;28;20037;-71
2022/06/05 07:49:54;;;;;;;3.35;2.80;;;22.90;47.20;21.80;101182.00;;;;5044502;28;20495;-71
2022/06/05 07:55:45;;;;;;;9.38;2.80;;;22.90;47.30;21.80;101173.00;;;;5055146;28;20100;-72
2022/06/05 07:58:31;;;;;;;4.78;2.70;;;22.90;47.40;21.80;101169.00;;;;5042914;28;20057;-71
2022/06/05 08:01:17;;;;;;;3.08;2.67;;;22.80;47.50;21.80;101173.00;;;;5041851;28;20053;-72
2022/06/05 08:04:04;;;;;;;2.90;2.40;;;22.80;47.30;21.80;101167.00;;;;5053061;28;20071;-72
2022/06/05 08:06:50;;;;;;;5.07;2.40;;;22.90;47.40;21.80;101164.00;;;;5050392;28;20044;-71
2022/06/05 08:09:37;;;;;;;2.67;2.47;;;22.80;47.40;21.80;101164.00;;;;5032317;28;20064;-72
2022/06/05 08:12:25;;;;;;;3.92;2.40;;;22.80;47.40;21.80;101161.00;;;;5051538;28;20056;-71
2022/06/05 08:15:13;;;;;;;2.65;2.45;;;22.80;47.40;21.80;101158.00;;;;5039373;28;20398;-72
2022/06/05 08:17:59;;;;;;;;;;;22.90;47.50;21.80;101150.00;;;;5047614;28;20040;-71
2022/06/05 08:20:45;;;;;;;3.97;2.53;;;22.90;47.40;21.80;101151.00;;;;5044749;28;19964;-71
2022/06/05 08:23:31;;;;;;;3.38;2.58;;;22.90;47.40;21.80;101145.00;;;;5057567;28;20037;-71
2022/06/05 08:26:17;;;;;;;2.88;2.65;;;22.90;47.50;21.80;101144.00;;;;5036462;28;20042;-72
2022/06/05 08:29:03;;;;;;;2.50;2.22;;;22.90;47.60;21.80;101132.00;;;;5051053;28;20578;-71
2022/06/05 08:31:49;;;;;;;2.60;2.40;;;22.90;48.30;21.80;101126.00;;;;5039523;28;20077;-71
2022/06/05 08:34:35;;;;;;;3.05;2.47;;;22.90;47.70;21.80;101121.00;;;;5042395;28;20044;-72
2022/06/05 08:43:55;;;;;;;3.25;2.33;;;22.90;47.80;21.80;101123.00;;;;5041661;28;20293;-72
2022/06/05 08:46:44;;;;;;;3.03;2.40;;;22.80;47.80;21.80;101114.00;;;;5048896;28;20033;-72
2022/06/05 08:50:03;;;;;;;7.50;2.58;;;22.90;47.80;21.80;101112.00;;;;5052442;28;20044;-79
2022/06/05 08:52:59;;;;;;;2.63;2.42;;;22.80;47.80;21.80;101101.00;;;;5056522;28;20052;-72
2022/06/05 08:55:46;;;;;;;2.95;2.65;;;22.80;47.80;21.80;101096.00;;;;5058166;28;20126;-72
2022/06/05 08:58:46;;;;;;;3.90;2.30;;;22.90;48.50;21.80;101092.00;;;;5047829;28;20045;-72
2022/06/05 09:01:46;;;;;;;5.43;2.60;;;22.80;47.90;21.80;101091.00;;;;5045525;28;20049;-72
2022/06/05 09:04:49;;;;;;;5.45;2.40;;;22.90;48.00;21.80;101082.00;;;;5034723;28;20572;-72
2022/06/05 09:07:44;;;;;;;2.53;2.33;;;22.90;48.00;21.80;101076.00;;;;5054298;28;20036;-72
2022/06/05 09:10:59;;;;;;;4.47;2.80;;;22.90;48.00;21.80;101081.00;;;;5038560;28;20390;-72
2022/06/05 09:14:03;;;;;;;3.47;2.42;;;22.80;48.00;21.80;101072.00;;;;5037960;28;20125;-75
2022/06/05 09:16:52;;;;;;;3.65;2.53;;;22.90;48.10;21.80;101071.00;;;;5028526;28;20044;-74
2022/06/05 09:19:38;;;;;;;4.65;2.53;;;22.80;48.00;21.80;101069.00;;;;5044774;28;20045;-74
2022/06/05 09:22:33;;;;;;;2.67;2.45;;;22.90;48.00;21.80;101070.00;;;;5041440;28;20045;-73
2022/06/05 09:25:39;;;;;;;2.88;2.38;;;22.90;48.20;21.80;101073.00;;;;5028956;28;20048;-74
2022/06/05 09:28:34;;;;;;;5.85;2.58;;;22.90;48.10;21.80;101072.00;;;;5041052;28;20063;-74
2022/06/05 09:31:39;;;;;;;3.17;2.70;;;22.90;48.10;21.80;101072.00;;;;5033778;28;20544;-75
2022/06/05 09:34:53;;;;;;;3.50;2.50;;;22.80;48.10;21.80;101085.00;;;;5027064;28;20072;-74
2022/06/05 09:37:57;;;;;;;4.40;2.78;;;22.90;48.30;21.80;101088.00;;;;5028459;28;20044;-74
2022/06/05 09:41:22;;;;;;;4.00;3.00;;;22.80;48.20;21.80;101091.00;;;;5055971;28;20122;-74
2022/06/05 09:44:22;;;;;;;2.78;2.47;;;22.80;48.20;21.80;101080.00;;;;5043532;28;20414;-73
2022/06/05 09:47:21;;;;;;;4.75;2.53;;;22.90;48.20;21.80;101065.00;;;;5056651;28;20041;-73
2022/06/05 09:50:25;;;;;;;3.95;2.75;;;22.90;48.20;21.80;101067.00;;;;5018848;28;20037;-75
2022/06/05 09:53:31;;;;;;;3.70;2.88;;;22.80;48.20;21.80;101059.00;;;;5031836;28;20049;-73
2022/06/05 10:00:00;;;;;;;3.00;2.60;;;22.90;48.30;21.80;101061.00;;;;5035960;28;20091;-73
2022/06/05 10:02:49;;;;;;;5.13;2.88;;;22.90;48.30;21.80;101055.00;;;;5021380;28;20503;-73
2022/06/05 10:05:40;;;;;;;3.30;3.00;;;22.90;48.20;21.80;101040.00;;;;5013755;28;20510;-73
2022/06/05 10:08:38;;;;;;;2.72;2.53;;;22.90;48.20;21.80;101049.00;;;;5030494;28;20037;-73
2022/06/05 10:11:49;;;;;;;;;;;22.90;48.20;21.80;101042.00;;;;5018068;28;20051;-73
2022/06/05 10:15:24;;;;;;;3.17;2.60;;;22.90;48.90;21.80;101041.00;;;;5045999;28;19920;-73
2022/06/05 10:18:17;;;;;;;2.85;2.65;;;22.90;48.20;21.80;101037.00;;;;5014037;28;20090;-73
2022/06/05 10:21:09;;;;;;;3.63;2.70;;;22.90;48.20;21.80;101035.00;;;;5039259;28;20142;-73
2022/06/05 10:24:29;;;;;;;2.92;2.60;;;22.90;48.20;21.80;101032.00;;;;5046270;28;20335;-75
2022/06/05 10:27:15;;;;;;;2.95;2.63;;;22.90;48.30;21.80;101030.00;;;;5015340;28;20044;-74
2022/06/05 10:30:05;;;;;;;8.80;3.13;;;22.90;48.20;21.80;101031.00;;;;5058690;28;20033;-74
2022/06/05 10:33:02;;;;;;;6.43;2.65;;;22.90;48.20;21.80;101028.00;;;;5052047;28;20049;-73
2022/06/05 10:36:06;;;;;;;7.78;3.30;;;22.90;48.20;21.80;101023.00;;;;5035963;28;20376;-75
2022/06/05 10:39:06;;;;;;;44.75;6.25;;;22.90;49.30;21.80;101021.00;;;;5060206;28;20045;-73
2022/06/05 10:41:52;;;;;;;16.25;4.20;;;22.90;48.80;21.90;101018.00;;;;5046616;28;20387;-73
2022/06/05 10:44:59;;;;;;;13.43;4.30;;;22.90;49.00;21.90;101008.00;;;;5047785;28;20371;-73
2022/06/05 10:47:57;;;;;;;9.27;4.40;;;22.90;49.10;21.90;101010.00;;;;5041338;28;20545;-72
2022/06/05 10:51:17;;;;;;;12.25;4.30;;;22.90;49.40;21.90;101005.00;;;;5028929;28;20095;-72
2022/06/05 10:54:15;;;;;;;4.53;3.78;;;22.90;49.50;21.90;101006.00;;;;5051930;28;20094;-72
2022/06/05 10:57:34;;;;;;;4.70;3.95;;;22.90;49.50;21.90;100999.00;;;;5048156;28;20551;-73
2022/06/05 11:00:28;;;;;;;6.00;3.72;;;23.00;49.40;21.90;100993.00;;;;5012503;28;20132;-76
2022/06/05 11:03:44;;;;;;;5.82;4.07;;;23.00;49.50;21.90;100984.00;;;;5038250;28;20072;-74
2022/06/05 11:06:50;;;;;;;6.35;4.05;;;23.00;49.60;21.90;100990.00;;;;5049084;28;20146;-73
2022/06/05 11:09:39;;;;;;;16.63;4.15;;;23.00;49.70;22.00;100979.00;;;;5051859;28;20149;-74
2022/06/05 11:16:31;;;;;;;7.35;3.97;;;23.10;49.70;22.00;100974.00;;;;5019142;28;20119;-72
2022/06/05 11:19:56;;;;;;;5.55;3.90;;;23.10;49.70;22.00;100967.00;;;;5042345;28;20076;-73
2022/06/05 11:23:06;;;;;;;5.72;3.95;;;23.10;49.70;22.00;100964.00;;;;5060456;28;20486;-74
2022/06/05 11:26:14;;;;;;;5.90;3.65;;;23.10;49.80;22.00;100967.00;;;;5035198;28;20099;-73
2022/06/05 11:29:27;;;;;;;5.57;3.90;;;23.10;49.60;22.00;100960.00;;;;5038472;28;20132;-74
2022/06/05 11:32:32;;;;;;;4.40;4.00;;;23.20;49.80;22.00;100969.00;;;;5015418;28;20037;-73
2022/06/05 11:35:25;;;;;;;8.60;3.90;;;23.20;49.80;22.10;100961.00;;;;5039386;28;20068;-73
2022/06/05 11:38:21;;;;;;;4.38;3.97;;;23.20;49.60;22.10;100955.00;;;;5056437;28;20040;-73
2022/06/05 11:41:29;;;;;;;6.03;3.53;;;23.20;49.70;22.10;100958.00;;;;5051109;28;20089;-73
2022/06/05 11:44:38;;;;;;;11.43;6.25;;;23.20;49.60;22.10;100966.00;;;;5051735;28;20044;-73
2022/06/05 11:47:45;;;;;;;;;;;23.20;49.40;22.10;100965.00;;;;5040861;28;20352;-74
2022/06/05 11:50:44;;;;;;;51.72;6.93;;;23.20;49.20;22.10;100954.00;;;;5041529;28;19924;-73
2022/06/05 11:53:47;;;;;;;77.30;11.10;;;23.30;49.30;22.10;100960.00;;;;5029412;28;20041;-73
2022/06/05 11:57:04;;;;;;;55.63;8.05;;;23.30;49.40;22.10;100953.00;;;;5042299;28;20597;-73
2022/06/05 12:00:18;;;;;;;68.38;9.52;;;23.20;49.30;22.10;100950.00;;;;5058680;28;20045;-73
2022/06/05 12:03:39;;;;;;;30.98;5.63;;;23.20;49.30;22.10;100960.00;;;;5043547;28;20041;-73
2022/06/05 12:06:57;;;;;;;37.20;5.22;;;23.20;49.20;22.10;100954.00;;;;5038239;28;20521;-73
2022/06/05 12:09:47;;;;;;;18.08;4.57;;;23.30;49.30;22.10;100948.00;;;;5049817;28;20044;-73
2022/06/05 12:13:01;;;;;;;18.20;4.70;;;23.20;49.20;22.10;100939.00;;;;5044506;28;20059;-73
2022/06/05 12:16:16;;;;;;;18.48;4.60;;;23.20;49.20;22.10;100937.00;;;;5042464;28;20152;-73
2022/06/05 12:19:36;;;;;;;11.98;3.60;;;23.20;49.20;22.10;100934.00;;;;5044507;28;20045;-73
2022/06/05 12:22:46;;;;;;;11.15;3.70;;;23.30;49.20;22.10;100934.00;;;;5042455;28;20120;-73
2022/06/05 12:25:55;;;;;;;11.05;3.60;;;23.30;49.20;22.10;100935.00;;;;5052196;28;20048;-73
2022/06/05 12:28:47;;;;;;;11.55;3.30;;;23.30;49.10;22.10;100941.00;;;;5029992;28;20123;-73
2022/06/05 12:31:38;;;;;;;7.30;3.60;;;23.30;49.10;22.10;100934.00;;;;5027867;28;20419;-73
2022/06/05 12:34:27;;;;;;;10.15;3.85;;;23.30;49.30;22.10;100936.00;;;;5030590;28;20095;-73
2022/06/05 12:37:38;;;;;;;8.93;3.38;;;23.20;49.30;22.10;100931.00;;;;5047634;28;20051;-73
2022/06/05 12:40:32;;;;;;;6.63;3.20;;;23.10;49.30;22.10;100943.00;;;;5034271;28;20041;-73
2022/06/05 12:44:14;;;;;;;5.95;3.70;;;23.20;49.40;22.10;100929.00;;;;5058911;28;20103;-73
2022/06/05 12:47:39;;;;;;;4.25;3.83;;;23.20;49.60;22.10;100926.00;;;;5043424;28;20055;-73
2022/06/05 12:51:08;;;;;;;4.28;3.83;;;23.20;49.80;22.10;100934.00;;;;5057598;28;20478;-73
2022/06/05 12:54:13;;;;;;;5.43;3.42;;;23.20;49.90;22.10;100936.00;;;;5044139;28;20438;-73
2022/06/05 12:56:59;;;;;;;5.88;3.60;;;23.20;50.00;22.10;100931.00;;;;5024497;28;20063;-73
2022/06/05 13:00:03;;;;;;;7.20;3.58;;;23.20;50.10;22.10;100934.00;;;;5036879;28;20103;-73
2022/06/05 13:03:28;;;;;;;5.78;3.70;;;23.20;50.20;22.10;100932.00;;;;5043491;28;20120;-73
2022/06/05 13:07:00;;;;;;;4.63;3.33;;;23.20;50.20;22.10;100935.00;;;;5043689;28;20044;-73
2022/06/05 13:09:51;;;;;;;4.50;3.20;;;23.20;50.30;22.10;100934.00;;;;5043345;28;20128;-73